Wetterdaten: aktuell Donnerstag, 23.10.2014 23:24
Datum Zeit Temperatur Feuchte Luftdruck Regen Wind Richtung Richtung Taupunkt Windchill
23.10.2014 23:24 10,8 C 92 % 1022,0 hPa 0,0 l/m 10,4 km/h (2 Bft) SO67.5 145 9,6 C 10,8 C
23.10.2014 22:24 10,8 C 91 % 1023,0 hPa 0,0 l/m 3,1 km/h (1 Bft) S-SO22.5 160 9,4 C 10,8 C
23.10.2014 21:24 11,2 C 90 % 1022,0 hPa 0,0 l/m 9,6 km/h (2 Bft) SO45 145 9,6 C 11,2 C
23.10.2014 20:24 11,3 C 89 % 1022,0 hPa 0,0 l/m 1,1 km/h (1 Bft) SO 140 9,6 C 11,3 C
23.10.2014 19:24 11,4 C 89 % 1022,0 hPa 0,0 l/m 4,6 km/h (1 Bft) SO 145 9,7 C 11,4 C
23.10.2014 18:24 11,9 C 87 % 1021,9 hPa 0,0 l/m 8,0 km/h (2 Bft) S-SO22.5 155 9,8 C 11,9 C
23.10.2014 17:24 12,4 C 85 % 1021,9 hPa 0,0 l/m 7,4 km/h (2 Bft) S67.5 170 9,9 C 12,4 C
23.10.2014 16:24 12,7 C 84 % 1021,9 hPa 0,0 l/m 13,3 km/h (3 Bft) S45 175 10,1 C 12,7 C
23.10.2014 15:24 13,0 C 84 % 1021,8 hPa 0,0 l/m 9,1 km/h (2 Bft) S45 180 10,4 C 13,0 C
23.10.2014 14:24 12,4 C 85 % 1022,9 hPa 0,0 l/m 13,5 km/h (3 Bft) S45 185 9,9 C 12,4 C
23.10.2014 13:24 12,2 C 86 % 1022,9 hPa 0,0 l/m 9,4 km/h (2 Bft) S45 180 9,9 C 12,2 C
23.10.2014 12:24 11,6 C 91 % 1023,0 hPa 0,0 l/m 8,3 km/h (2 Bft) S-SO 155 10,2 C 11,6 C
23.10.2014 11:24 10,3 C 95 % 1023,1 hPa 0,0 l/m 6,6 km/h (2 Bft) S22.5 190 9,5 C 10,3 C
23.10.2014 10:24 9,5 C 98 % 1023,2 hPa 0,0 l/m 5,2 km/h (1 Bft) S-SO45 165 9,2 C 9,1 C
23.10.2014 09:24 8,4 C 98 % 1023,2 hPa 0,0 l/m 7,8 km/h (2 Bft) S-SO22.5 150 8,1 C 7,2 C
23.10.2014 08:24 8,1 C 98 % 1022,2 hPa 0,0 l/m 6,5 km/h (2 Bft) S-SO45 165 7,8 C 7,1 C
23.10.2014 07:24 8,1 C 97 % 1022,2 hPa 0,0 l/m 6,5 km/h (2 Bft) SO22.5 145 7,7 C 7,1 C
23.10.2014 06:24 8,0 C 97 % 1022,3 hPa 0,0 l/m 0,0 km/h (0 Bft) S-SW 205 7,6 C 8,0 C
23.10.2014 05:24 7,9 C 96 % 1022,3 hPa 0,0 l/m 7,7 km/h (2 Bft) SW22.5 215 7,3 C 6,6 C
23.10.2014 04:18 7,6 C 96 % 1022,3 hPa 0,0 l/m 5,7 km/h (1 Bft) SW22.5 225 7,0 C 6,8 C
23.10.2014 03:18 7,4 C 96 % 1022,3 hPa 0,0 l/m 1,4 km/h (1 Bft) SW 215 6,8 C 7,4 C
23.10.2014 02:18 8,0 C 95 % 1022,3 hPa 0,0 l/m 7,2 km/h (2 Bft) SW22.5 225 7,2 C 6,8 C
23.10.2014 01:18 7,9 C 95 % 1022,3 hPa 0,0 l/m 5,2 km/h (1 Bft) S-SW 205 7,1 C 7,3 C
23.10.2014 00:18 8,1 C 94 % 1022,2 hPa 0,0 l/m 4,0 km/h (1 Bft) SW 220 7,2 C 8,1 C
23.10.2014 00:00 8,1 C 93 % 1022,2 hPa 0,0 l/m 0,9 km/h (0 Bft) SW 235 7,0 C 8,1 C
_ Min-Zeit 03:21 14:54 15:33 - 03:30 - - 03:21 04:51
Minimum _ 7,3 C 84 % 1021,8 hPa - 0,0 km/h (0 Bft) - - 6,7 C 5,4 C
_ Max-Zeit 15:33 07:51 08:33 00:00 15:45 - - 15:33 15:33
Maximum _ 13,2 C 98 % 1023,3 hPa 0,0 l/m 18,4 km/h
S-SW (3 Bft)
- - 10,6 C 13,2 C
Durchschnitt _ 10,0 C 92 % 1022,4 hPa #0,0 l/m 7,4 km/h (2 Bft) S - 8,8 C 9,7 C